Time;durP1;ratioP1;P1;durP2;ratioP2;P2;SDS_P1;SDS_P2;PMS_P1;PMS_P2;Temp;Humidity;BMP_temperature;BMP_pressure;BME280_temperature;BME280_humidity;BME280_pressure;Samples;Min_cycle;Max_cycle;Signal;HPM_P1;HPM_P2
2024/01/04 00:02:13;;;;;;;5.28;2.50;;;;;;;;;;5043168;28;20846;-71
2024/01/04 00:04:40;;;;;;;3.60;1.70;;;;;;;;;;5042333;28;20057;-71
2024/01/04 00:07:06;;;;;;;8.10;2.50;;;;;;;;;;5043593;28;20491;-71
2024/01/04 00:09:33;;;;;;;7.53;2.38;;;;;;;;;;5042685;28;20080;-71
2024/01/04 00:11:59;;;;;;;7.20;2.28;;;;;;;;;;5042442;28;20606;-71
2024/01/04 00:14:26;;;;;;;5.82;2.83;;;;;;;;;;5043676;28;20060;-71
2024/01/04 00:16:52;;;;;;;9.75;2.60;;;;;;;;;;5043023;28;20060;-71
2024/01/04 00:19:19;;;;;;;8.90;2.13;;;;;;;;;;5043298;28;20394;-70
2024/01/04 00:21:45;;;;;;;10.02;2.70;;;;;;;;;;5042317;28;20049;-70
2024/01/04 00:24:12;;;;;;;14.52;2.30;;;;;;;;;;5043282;28;20127;-70
2024/01/04 00:26:38;;;;;;;9.30;2.50;;;;;;;;;;5044086;28;20057;-70
2024/01/04 00:29:05;;;;;;;9.43;2.90;;;;;;;;;;5041380;28;20566;-70
2024/01/04 00:31:32;;;;;;;11.20;2.15;;;;;;;;;;5043092;28;20061;-70
2024/01/04 00:33:58;;;;;;;6.47;3.30;;;;;;;;;;5042348;28;20049;-71
2024/01/04 00:36:25;;;;;;;7.38;3.10;;;;;;;;;;5042622;28;20065;-70
2024/01/04 00:38:51;;;;;;;7.78;3.13;;;;;;;;;;5042540;28;20080;-71
2024/01/04 00:41:18;;;;;;;12.00;3.33;;;;;;;;;;5038348;28;20077;-70
2024/01/04 00:43:44;;;;;;;10.73;2.83;;;;;;;;;;5028647;28;20053;-70
2024/01/04 00:46:11;;;;;;;6.45;2.55;;;;;;;;;;5043131;28;20057;-71
2024/01/04 00:48:37;;;;;;;8.68;2.80;;;;;;;;;;5026322;28;20049;-70
2024/01/04 00:51:04;;;;;;;9.70;2.05;;;;;;;;;;5042859;28;20057;-73
2024/01/04 00:53:30;;;;;;;9.07;2.70;;;;;;;;;;5042561;28;20046;-70
2024/01/04 00:55:57;;;;;;;12.48;3.15;;;;;;;;;;5042931;28;20057;-70
2024/01/04 00:58:23;;;;;;;8.50;2.70;;;;;;;;;;5042317;28;20061;-70
2024/01/04 01:00:50;;;;;;;10.27;2.70;;;;;;;;;;5041634;28;20056;-70
2024/01/04 01:03:16;;;;;;;8.00;2.47;;;;;;;;;;5041698;28;20135;-71
2024/01/04 01:05:43;;;;;;;10.05;2.40;;;;;;;;;;5043311;28;20053;-71
2024/01/04 01:08:10;;;;;;;8.90;2.58;;;;;;;;;;5044000;28;20050;-71
2024/01/04 01:10:36;;;;;;;13.10;4.80;;;;;;;;;;5042494;28;20136;-71
2024/01/04 01:13:03;;;;;;;10.45;2.92;;;;;;;;;;5043291;28;20565;-71
2024/01/04 01:15:29;;;;;;;8.55;2.58;;;;;;;;;;5041322;28;20049;-71
2024/01/04 01:17:56;;;;;;;10.82;2.63;;;;;;;;;;5045386;28;20083;-71
2024/01/04 01:20:22;;;;;;;6.53;2.63;;;;;;;;;;5047135;28;20099;-71
2024/01/04 01:22:49;;;;;;;8.65;2.63;;;;;;;;;;5045833;28;20053;-71
2024/01/04 01:25:15;;;;;;;9.15;3.08;;;;;;;;;;5044911;28;20057;-71
2024/01/04 01:27:42;;;;;;;10.13;2.67;;;;;;;;;;5045438;28;20080;-70
2024/01/04 01:30:08;;;;;;;8.13;2.95;;;;;;;;;;5046566;28;20064;-70
2024/01/04 01:32:35;;;;;;;8.02;2.90;;;;;;;;;;5030146;28;20053;-71
2024/01/04 01:35:02;;;;;;;11.68;3.05;;;;;;;;;;5045670;28;20128;-70
2024/01/04 01:37:28;;;;;;;9.35;2.80;;;;;;;;;;5044455;28;20503;-70
2024/01/04 01:39:55;;;;;;;5.78;2.28;;;;;;;;;;5044873;28;20058;-70
2024/01/04 01:42:21;;;;;;;11.18;2.80;;;;;;;;;;5045285;28;20053;-70
2024/01/04 01:44:48;;;;;;;7.85;2.40;;;;;;;;;;5045884;28;20063;-70
2024/01/04 01:47:16;;;;;;;8.50;2.97;;;;;;;;;;5045890;28;20085;-72
2024/01/04 01:49:42;;;;;;;14.73;3.28;;;;;;;;;;5044988;28;20053;-70
2024/01/04 01:52:09;;;;;;;6.63;2.35;;;;;;;;;;5044988;28;20049;-70
2024/01/04 01:54:35;;;;;;;12.27;2.67;;;;;;;;;;5044575;28;20469;-70
2024/01/04 01:57:02;;;;;;;4.95;2.45;;;;;;;;;;5045163;28;20496;-71
2024/01/04 01:59:28;;;;;;;4.00;2.42;;;;;;;;;;5044673;28;20139;-70
2024/01/04 02:01:55;;;;;;;5.25;1.83;;;;;;;;;;5043741;28;20053;-71
2024/01/04 02:04:21;;;;;;;5.97;1.77;;;;;;;;;;5045788;28;20060;-73
2024/01/04 02:06:48;;;;;;;5.85;2.00;;;;;;;;;;5044640;28;20053;-72
2024/01/04 02:09:15;;;;;;;5.35;1.42;;;;;;;;;;5044620;28;20056;-70
2024/01/04 02:11:42;;;;;;;3.17;1.08;;;;;;;;;;5042894;28;20061;-72
2024/01/04 02:14:08;;;;;;;5.43;1.70;;;;;;;;;;5044737;28;20053;-72
2024/01/04 02:16:35;;;;;;;6.68;1.70;;;;;;;;;;5045082;28;20061;-72
2024/01/04 02:19:02;;;;;;;8.77;1.80;;;;;;;;;;5045039;28;20099;-71
2024/01/04 02:21:29;;;;;;;6.75;2.00;;;;;;;;;;5043743;28;20148;-71
2024/01/04 02:23:55;;;;;;;3.40;1.35;;;;;;;;;;5044388;28;20140;-70
2024/01/04 02:26:22;;;;;;;5.55;1.60;;;;;;;;;;5044919;28;20549;-70
2024/01/04 02:28:49;;;;;;;4.60;1.20;;;;;;;;;;5043987;28;20112;-71
2024/01/04 02:31:15;;;;;;;9.00;1.95;;;;;;;;;;5045252;28;20077;-71
2024/01/04 02:33:41;;;;;;;5.13;1.20;;;;;;;;;;5044520;28;20137;-71
2024/01/04 02:36:08;;;;;;;7.28;1.60;;;;;;;;;;5044409;28;20096;-70
2024/01/04 02:38:34;;;;;;;3.63;1.17;;;;;;;;;;5043119;28;20526;-71
2024/01/04 02:41:01;;;;;;;8.90;1.60;;;;;;;;;;5044437;28;20057;-71
2024/01/04 02:43:27;;;;;;;4.32;1.42;;;;;;;;;;5045559;28;20135;-71
2024/01/04 02:45:54;;;;;;;5.13;1.50;;;;;;;;;;5043664;28;20463;-70
2024/01/04 02:48:20;;;;;;;4.40;1.70;;;;;;;;;;5045634;28;20930;-70
2024/01/04 02:50:47;;;;;;;6.07;1.48;;;;;;;;;;5044337;28;20057;-71
2024/01/04 02:53:13;;;;;;;2.60;1.30;;;;;;;;;;5042902;28;20054;-71
2024/01/04 02:55:40;;;;;;;3.40;0.98;;;;;;;;;;5043360;28;20498;-71
2024/01/04 02:58:06;;;;;;;7.00;1.50;;;;;;;;;;5044755;28;20058;-71
2024/01/04 03:00:33;;;;;;;6.30;1.40;;;;;;;;;;5044823;28;20516;-71
2024/01/04 03:02:59;;;;;;;7.53;1.40;;;;;;;;;;5044047;28;20159;-70
2024/01/04 03:05:26;;;;;;;10.27;1.65;;;;;;;;;;5042773;28;20049;-71
2024/01/04 03:07:52;;;;;;;6.15;1.65;;;;;;;;;;5042854;28;20173;-71
2024/01/04 03:10:19;;;;;;;2.92;1.25;;;;;;;;;;5043257;28;20532;-71
2024/01/04 03:12:45;;;;;;;5.65;1.30;;;;;;;;;;5044147;28;20605;-70
2024/01/04 03:15:12;;;;;;;3.88;1.67;;;;;;;;;;5036846;28;20080;-71
2024/01/04 03:17:39;;;;;;;4.65;2.25;;;;;;;;;;5044275;28;20088;-70
2024/01/04 03:20:06;;;;;;;7.60;1.77;;;;;;;;;;5045105;28;20054;-70
2024/01/04 03:22:32;;;;;;;2.28;1.63;;;;;;;;;;5043252;28;20058;-70
2024/01/04 03:24:58;;;;;;;7.63;2.15;;;;;;;;;;5044467;28;20049;-71
2024/01/04 03:27:25;;;;;;;9.70;2.17;;;;;;;;;;5043866;28;20059;-70
2024/01/04 03:29:52;;;;;;;6.95;1.90;;;;;;;;;;5044187;28;20057;-70
2024/01/04 03:32:19;;;;;;;7.53;1.75;;;;;;;;;;5043714;28;20050;-70
2024/01/04 03:34:45;;;;;;;4.15;2.17;;;;;;;;;;5044170;28;20507;-70
2024/01/04 03:37:12;;;;;;;8.40;2.33;;;;;;;;;;5042529;28;20507;-70
2024/01/04 03:39:38;;;;;;;6.78;1.90;;;;;;;;;;5042671;28;20471;-70
2024/01/04 03:42:05;;;;;;;6.25;2.67;;;;;;;;;;5034607;28;20488;-71
2024/01/04 03:44:31;;;;;;;8.82;2.15;;;;;;;;;;5036570;28;20066;-70
2024/01/04 03:46:57;;;;;;;5.32;2.03;;;;;;;;;;5028302;28;20543;-70
2024/01/04 03:49:24;;;;;;;9.25;1.83;;;;;;;;;;5042705;28;20064;-70
2024/01/04 03:51:51;;;;;;;7.78;2.33;;;;;;;;;;5042599;28;20085;-69
2024/01/04 03:54:17;;;;;;;6.32;1.88;;;;;;;;;;5042257;28;20057;-70
2024/01/04 03:56:43;;;;;;;8.88;2.50;;;;;;;;;;5042716;28;20053;-71
2024/01/04 03:59:10;;;;;;;7.97;2.13;;;;;;;;;;5041906;28;20602;-70
2024/01/04 04:01:46;;;;;;;5.03;1.77;;;;;;;;;;5043530;28;20530;-70
2024/01/04 04:04:12;;;;;;;6.18;1.85;;;;;;;;;;5042408;28;20530;-71
2024/01/04 04:06:39;;;;;;;10.65;2.55;;;;;;;;;;5041954;28;20163;-71
2024/01/04 04:09:09;;;;;;;15.80;2.63;;;;;;;;;;5043773;28;20065;-71
2024/01/04 04:11:36;;;;;;;3.65;1.70;;;;;;;;;;5043769;28;20228;-71
2024/01/04 04:14:02;;;;;;;6.20;1.90;;;;;;;;;;5042745;28;20050;-71
2024/01/04 04:16:28;;;;;;;5.93;1.92;;;;;;;;;;5042040;28;20057;-71
2024/01/04 04:18:55;;;;;;;12.80;2.10;;;;;;;;;;5042110;28;20124;-71
2024/01/04 04:21:23;;;;;;;6.18;1.42;;;;;;;;;;5043020;28;20136;-70
2024/01/04 04:23:50;;;;;;;6.93;1.90;;;;;;;;;;5043536;28;20053;-70
2024/01/04 04:26:20;;;;;;;4.68;1.80;;;;;;;;;;5043945;28;20113;-71
2024/01/04 04:28:50;;;;;;;4.68;1.65;;;;;;;;;;5042621;28;20566;-71
2024/01/04 04:31:17;;;;;;;9.13;1.90;;;;;;;;;;5043281;28;20054;-70
2024/01/04 04:33:45;;;;;;;7.20;1.65;;;;;;;;;;5042193;28;20053;-70
2024/01/04 04:36:11;;;;;;;4.05;1.98;;;;;;;;;;5040142;28;20107;-70
2024/01/04 04:38:38;;;;;;;7.30;1.50;;;;;;;;;;5043243;28;20052;-71
2024/01/04 04:41:05;;;;;;;5.30;1.77;;;;;;;;;;5041797;28;20108;-71
2024/01/04 04:43:32;;;;;;;6.65;2.05;;;;;;;;;;5042909;28;20492;-70
2024/01/04 04:45:59;;;;;;;5.88;2.03;;;;;;;;;;5042257;28;20533;-70
2024/01/04 04:48:25;;;;;;;4.60;1.52;;;;;;;;;;5043394;28;20049;-70
2024/01/04 04:50:53;;;;;;;8.90;1.83;;;;;;;;;;5040400;28;20053;-70
2024/01/04 04:53:20;;;;;;;3.58;1.52;;;;;;;;;;5042284;28;20087;-70
2024/01/04 04:55:46;;;;;;;9.00;2.30;;;;;;;;;;5042534;28;20483;-70
2024/01/04 04:58:12;;;;;;;5.18;2.42;;;;;;;;;;5040906;28;20060;-71
2024/01/04 05:00:39;;;;;;;7.05;2.30;;;;;;;;;;5042365;28;20562;-70
2024/01/04 05:03:06;;;;;;;7.20;2.40;;;;;;;;;;5042809;28;20053;-71
2024/01/04 05:05:33;;;;;;;6.50;2.00;;;;;;;;;;5042325;28;20811;-70
2024/01/04 05:07:59;;;;;;;8.38;2.60;;;;;;;;;;5040979;28;20056;-70
2024/01/04 05:10:26;;;;;;;9.57;3.00;;;;;;;;;;5042827;28;20107;-70
2024/01/04 05:12:53;;;;;;;9.52;2.30;;;;;;;;;;5042808;28;20053;-70
2024/01/04 05:15:19;;;;;;;6.68;2.35;;;;;;;;;;5041826;28;20526;-70
2024/01/04 05:17:45;;;;;;;6.68;2.45;;;;;;;;;;5042843;28;20057;-71
2024/01/04 05:20:14;;;;;;;9.05;2.55;;;;;;;;;;5038299;28;20111;-70
2024/01/04 05:22:40;;;;;;;4.50;2.33;;;;;;;;;;5042343;28;20053;-70
2024/01/04 05:25:07;;;;;;;8.45;2.58;;;;;;;;;;5042697;28;20427;-70
2024/01/04 05:27:33;;;;;;;4.47;2.15;;;;;;;;;;5042347;28;20132;-70
2024/01/04 05:30:00;;;;;;;9.75;2.35;;;;;;;;;;5041597;28;20050;-70
2024/01/04 05:32:26;;;;;;;5.05;2.17;;;;;;;;;;5041954;28;20072;-70
2024/01/04 05:34:53;;;;;;;5.63;2.33;;;;;;;;;;5042053;28;20057;-70
2024/01/04 05:37:19;;;;;;;7.95;2.00;;;;;;;;;;5042833;28;20081;-70
2024/01/04 05:39:46;;;;;;;4.68;2.00;;;;;;;;;;5040411;28;20079;-71
2024/01/04 05:42:12;;;;;;;8.35;2.58;;;;;;;;;;5042183;28;20403;-70
2024/01/04 05:44:39;;;;;;;5.32;2.08;;;;;;;;;;5042283;28;20151;-70
2024/01/04 05:47:07;;;;;;;6.22;2.72;;;;;;;;;;5039987;28;20052;-70
2024/01/04 05:49:33;;;;;;;6.95;2.45;;;;;;;;;;5039352;28;20431;-71
2024/01/04 05:52:00;;;;;;;10.18;3.28;;;;;;;;;;5042346;28;20515;-70
2024/01/04 05:54:26;;;;;;;17.30;3.08;;;;;;;;;;5041949;28;20587;-70
2024/01/04 05:56:53;;;;;;;5.45;2.30;;;;;;;;;;5042356;28;20060;-70
2024/01/04 05:59:19;;;;;;;7.75;3.00;;;;;;;;;;5042386;28;20523;-70
2024/01/04 06:01:47;;;;;;;5.50;2.60;;;;;;;;;;5042746;28;20061;-70
2024/01/04 06:04:13;;;;;;;4.05;2.33;;;;;;;;;;5045738;28;20967;-72
2024/01/04 06:06:39;;;;;;;4.97;2.38;;;;;;;;;;5045663;28;20970;-70
2024/01/04 06:09:06;;;;;;;5.63;2.58;;;;;;;;;;5045767;28;20108;-70
2024/01/04 06:11:33;;;;;;;5.03;2.00;;;;;;;;;;5045717;28;20052;-70
2024/01/04 06:13:59;;;;;;;6.13;2.35;;;;;;;;;;5046010;28;20064;-72
2024/01/04 06:16:25;;;;;;;7.18;2.42;;;;;;;;;;5044709;28;20137;-72
2024/01/04 06:18:53;;;;;;;4.28;2.20;;;;;;;;;;5044634;28;20057;-71
2024/01/04 06:21:19;;;;;;;7.68;2.47;;;;;;;;;;5046085;28;20058;-71
2024/01/04 06:23:46;;;;;;;5.40;2.25;;;;;;;;;;5045489;28;20100;-70
2024/01/04 06:26:18;;;;;;;8.23;2.72;;;;;;;;;;5045653;28;20065;-70
2024/01/04 06:28:45;;;;;;;3.70;2.33;;;;;;;;;;5044864;28;20065;-70
2024/01/04 06:31:11;;;;;;;9.95;2.67;;;;;;;;;;5034124;28;20055;-71
2024/01/04 06:33:38;;;;;;;5.35;2.78;;;;;;;;;;5045177;28;20080;-71
2024/01/04 06:36:05;;;;;;;2.72;1.95;;;;;;;;;;5045276;28;20060;-70
2024/01/04 06:38:34;;;;;;;5.30;2.17;;;;;;;;;;5045622;28;20069;-70
2024/01/04 06:41:02;;;;;;;6.28;2.58;;;;;;;;;;5045595;28;20054;-70
2024/01/04 06:43:30;;;;;;;8.32;2.95;;;;;;;;;;5044734;28;20590;-71
2024/01/04 06:45:57;;;;;;;5.28;2.70;;;;;;;;;;5044941;28;20097;-70
2024/01/04 06:48:24;;;;;;;6.25;3.38;;;;;;;;;;5044854;28;20068;-71
2024/01/04 06:50:51;;;;;;;9.80;3.10;;;;;;;;;;5045296;28;20056;-70
2024/01/04 06:53:17;;;;;;;7.85;2.50;;;;;;;;;;5044409;28;20571;-71
2024/01/04 06:55:43;;;;;;;8.70;2.95;;;;;;;;;;5033505;28;20556;-71
2024/01/04 06:58:10;;;;;;;8.77;3.00;;;;;;;;;;5044535;28;20053;-70
2024/01/04 07:00:37;;;;;;;8.82;2.92;;;;;;;;;;5038177;28;20053;-71
2024/01/04 07:03:03;;;;;;;7.72;3.47;;;;;;;;;;5040766;28;20053;-70
2024/01/04 07:05:30;;;;;;;6.07;3.20;;;;;;;;;;5040194;28;20127;-70
2024/01/04 07:07:57;;;;;;;9.02;3.60;;;;;;;;;;5043285;28;20571;-71
2024/01/04 07:10:23;;;;;;;9.77;3.67;;;;;;;;;;5038532;28;20050;-71
2024/01/04 07:12:50;;;;;;;8.52;3.63;;;;;;;;;;5042524;28;20076;-70
2024/01/04 07:15:17;;;;;;;8.82;3.42;;;;;;;;;;5042545;28;20057;-70
2024/01/04 07:17:43;;;;;;;6.60;3.75;;;;;;;;;;5030460;28;20060;-70
2024/01/04 07:20:10;;;;;;;8.45;2.70;;;;;;;;;;5024832;28;20050;-71
2024/01/04 07:22:37;;;;;;;7.30;2.88;;;;;;;;;;5038854;28;20085;-71
2024/01/04 07:25:03;;;;;;;6.57;3.05;;;;;;;;;;5044253;28;20511;-70
2024/01/04 07:27:30;;;;;;;6.00;2.15;;;;;;;;;;5043719;28;20535;-70
2024/01/04 07:29:57;;;;;;;7.60;2.20;;;;;;;;;;5043590;28;20407;-70
2024/01/04 07:32:23;;;;;;;7.68;2.30;;;;;;;;;;5043459;28;20056;-70
2024/01/04 07:34:50;;;;;;;6.25;2.25;;;;;;;;;;5043581;28;20062;-70
2024/01/04 07:37:33;;;;;;;8.05;1.90;;;;;;;;;;5043395;28;20164;-71
2024/01/04 07:39:59;;;;;;;5.65;2.00;;;;;;;;;;5043638;28;20049;-70
2024/01/04 07:42:26;;;;;;;6.68;2.55;;;;;;;;;;5043811;28;20169;-71
2024/01/04 07:44:53;;;;;;;5.20;1.83;;;;;;;;;;5036421;28;20057;-70
2024/01/04 07:47:31;;;;;;;5.95;1.70;;;;;;;;;;5043553;28;20132;-70
2024/01/04 07:49:58;;;;;;;12.07;2.30;;;;;;;;;;5043508;28;20086;-70
2024/01/04 07:52:24;;;;;;;4.80;1.98;;;;;;;;;;5041184;28;20054;-70
2024/01/04 07:54:51;;;;;;;6.13;1.73;;;;;;;;;;5035561;28;20092;-70
2024/01/04 07:57:17;;;;;;;4.20;1.52;;;;;;;;;;5043563;28;20187;-69
2024/01/04 07:59:44;;;;;;;5.30;1.55;;;;;;;;;;5043750;28;20124;-69
2024/01/04 08:02:10;;;;;;;3.90;1.65;;;;;;;;;;5043965;28;20041;-70
2024/01/04 08:04:37;;;;;;;5.70;1.52;;;;;;;;;;5043693;28;20753;-72
2024/01/04 08:07:03;;;;;;;8.13;2.03;;;;;;;;;;5043705;28;20053;-70
2024/01/04 08:09:30;;;;;;;8.73;2.55;;;;;;;;;;5043417;28;20081;-70
2024/01/04 08:11:56;;;;;;;7.85;3.45;;;;;;;;;;5043859;28;20057;-70
2024/01/04 08:14:23;;;;;;;5.93;2.05;;;;;;;;;;5042746;28;20053;-70
2024/01/04 08:16:49;;;;;;;5.97;2.40;;;;;;;;;;5042717;28;20049;-70
2024/01/04 08:19:16;;;;;;;7.15;2.00;;;;;;;;;;5042629;28;20157;-70
2024/01/04 08:21:42;;;;;;;8.07;2.42;;;;;;;;;;5042360;28;20496;-70
2024/01/04 08:24:09;;;;;;;7.80;2.00;;;;;;;;;;5042617;28;20524;-69
2024/01/04 08:26:41;;;;;;;10.45;2.28;;;;;;;;;;5033674;28;20131;-69
2024/01/04 08:29:08;;;;;;;4.75;2.00;;;;;;;;;;5036450;28;20060;-70
2024/01/04 08:31:36;;;;;;;5.85;1.90;;;;;;;;;;5043628;28;20141;-69
2024/01/04 08:34:02;;;;;;;8.13;4.43;;;;;;;;;;5043527;28;20061;-70
2024/01/04 08:36:29;;;;;;;6.95;2.95;;;;;;;;;;5041180;28;20378;-71
2024/01/04 08:38:55;;;;;;;3.63;1.92;;;;;;;;;;5043282;28;20057;-71
2024/01/04 08:41:22;;;;;;;8.05;2.20;;;;;;;;;;5043290;28;20053;-70
2024/01/04 08:43:49;;;;;;;5.70;2.38;;;;;;;;;;5042135;28;20057;-71
2024/01/04 08:46:16;;;;;;;6.18;2.28;;;;;;;;;;5041904;28;20085;-70
2024/01/04 08:48:42;;;;;;;13.50;2.72;;;;;;;;;;5043070;28;20890;-69
2024/01/04 08:51:09;;;;;;;7.13;2.40;;;;;;;;;;5043128;28;20088;-70
2024/01/04 08:53:37;;;;;;;5.57;2.45;;;;;;;;;;5043017;28;20059;-71
2024/01/04 08:56:08;;;;;;;5.65;2.90;;;;;;;;;;5041775;28;20061;-72
2024/01/04 08:58:35;;;;;;;7.43;2.42;;;;;;;;;;5042980;28;20065;-70
2024/01/04 09:01:02;;;;;;;6.18;2.60;;;;;;;;;;5042877;28;20059;-70
2024/01/04 09:03:28;;;;;;;5.88;2.55;;;;;;;;;;5040400;28;20053;-70
2024/01/04 09:05:55;;;;;;;9.70;3.00;;;;;;;;;;5042362;28;20052;-70
2024/01/04 09:08:22;;;;;;;8.60;2.97;;;;;;;;;;5043407;28;20216;-70
2024/01/04 09:10:49;;;;;;;11.60;3.17;;;;;;;;;;5041370;28;20053;-71
2024/01/04 09:13:15;;;;;;;9.27;2.67;;;;;;;;;;5042348;28;20065;-70
2024/01/04 09:15:42;;;;;;;7.30;2.83;;;;;;;;;;5042566;28;20045;-70
2024/01/04 09:18:08;;;;;;;8.38;3.13;;;;;;;;;;5043148;28;20557;-70
2024/01/04 09:20:35;;;;;;;6.45;3.30;;;;;;;;;;5042345;28;20058;-70
2024/01/04 09:23:02;;;;;;;9.18;3.58;;;;;;;;;;5042534;28;20065;-70
2024/01/04 09:25:29;;;;;;;9.27;3.55;;;;;;;;;;5041891;28;20057;-71
2024/01/04 09:27:56;;;;;;;8.25;3.15;;;;;;;;;;5042304;28;20057;-70
2024/01/04 09:30:22;;;;;;;9.30;3.45;;;;;;;;;;5041984;28;20478;-71
2024/01/04 09:32:49;;;;;;;8.40;3.40;;;;;;;;;;5042225;28;20058;-70
2024/01/04 09:35:20;;;;;;;6.15;3.33;;;;;;;;;;5041693;28;20061;-70
2024/01/04 09:37:49;;;;;;;10.93;3.67;;;;;;;;;;5042560;28;20479;-71
2024/01/04 09:40:16;;;;;;;12.63;3.88;;;;;;;;;;5045124;28;20060;-71
2024/01/04 09:42:43;;;;;;;6.68;3.38;;;;;;;;;;5045614;28;20085;-71
2024/01/04 09:45:14;;;;;;;8.07;3.90;;;;;;;;;;5045776;28;20560;-71
2024/01/04 09:47:41;;;;;;;11.07;4.22;;;;;;;;;;5045104;28;20060;-71
2024/01/04 09:50:10;;;;;;;8.13;3.88;;;;;;;;;;5045266;28;20049;-71
2024/01/04 09:52:42;;;;;;;9.27;4.22;;;;;;;;;;5046064;28;20057;-70
2024/01/04 09:55:09;;;;;;;12.15;4.40;;;;;;;;;;5045665;28;20955;-70
2024/01/04 09:57:36;;;;;;;9.13;4.22;;;;;;;;;;5045292;28;20053;-70
2024/01/04 10:00:03;;;;;;;8.30;4.18;;;;;;;;;;5045436;28;20061;-70
2024/01/04 10:02:32;;;;;;;15.23;6.32;;;;;;;;;;5044794;28;20060;-71
2024/01/04 10:04:59;;;;;;;8.68;3.78;;;;;;;;;;5044573;28;20053;-70
2024/01/04 10:07:27;;;;;;;11.35;4.75;;;;;;;;;;5035641;28;20658;-70
2024/01/04 10:10:01;;;;;;;10.02;5.00;;;;;;;;;;5037447;28;20054;-70
2024/01/04 10:12:32;;;;;;;10.80;4.25;;;;;;;;;;5034051;28;20552;-70
2024/01/04 10:14:59;;;;;;;13.98;5.00;;;;;;;;;;5043890;28;20467;-69
2024/01/04 10:17:25;;;;;;;13.02;5.30;;;;;;;;;;5044947;28;20570;-69
2024/01/04 10:19:52;;;;;;;9.00;4.38;;;;;;;;;;5045345;28;20057;-69
2024/01/04 10:22:21;;;;;;;13.30;4.43;;;;;;;;;;5044443;28;20060;-69
2024/01/04 10:24:48;;;;;;;9.85;4.95;;;;;;;;;;5044332;28;20551;-69
2024/01/04 10:27:15;;;;;;;11.85;4.60;;;;;;;;;;5043521;28;20491;-70
2024/01/04 10:29:44;;;;;;;8.55;4.47;;;;;;;;;;5044397;28;20057;-70
2024/01/04 10:32:12;;;;;;;15.05;4.32;;;;;;;;;;5043949;28;20053;-70
2024/01/04 10:34:39;;;;;;;9.65;4.47;;;;;;;;;;5044805;28;20057;-70
2024/01/04 10:37:08;;;;;;;10.65;4.40;;;;;;;;;;5044409;28;20519;-70
2024/01/04 10:39:35;;;;;;;12.93;6.90;;;;;;;;;;5044840;28;20058;-70
2024/01/04 10:42:02;;;;;;;15.50;7.40;;;;;;;;;;5042833;28;20792;-71
2024/01/04 10:44:28;;;;;;;12.55;6.00;;;;;;;;;;5043650;28;20144;-71
2024/01/04 10:46:59;;;;;;;12.60;6.20;;;;;;;;;;5044573;28;20995;-71
2024/01/04 10:49:27;;;;;;;10.35;5.30;;;;;;;;;;5042500;28;20826;-69
2024/01/04 10:51:54;;;;;;;12.20;5.15;;;;;;;;;;5043964;28;20104;-71
2024/01/04 10:54:23;;;;;;;9.10;4.60;;;;;;;;;;5044741;28;20080;-72
2024/01/04 10:56:50;;;;;;;11.77;6.13;;;;;;;;;;5043256;28;20053;-71
2024/01/04 10:59:17;;;;;;;11.32;7.35;;;;;;;;;;5043858;28;20057;-71
2024/01/04 11:01:43;;;;;;;11.00;7.47;;;;;;;;;;5044181;28;20095;-70
2024/01/04 11:04:10;;;;;;;25.13;15.93;;;;;;;;;;5043125;28;20139;-71
2024/01/04 11:06:40;;;;;;;17.73;11.40;;;;;;;;;;5038771;28;20049;-70
2024/01/04 11:09:09;;;;;;;17.52;9.80;;;;;;;;;;5035824;28;20056;-71
2024/01/04 11:11:36;;;;;;;7.72;5.50;;;;;;;;;;5044090;28;20134;-70
2024/01/04 11:14:02;;;;;;;8.13;5.20;;;;;;;;;;5043310;28;20060;-70
2024/01/04 11:16:41;;;;;;;10.70;5.05;;;;;;;;;;5044343;28;20053;-70
2024/01/04 11:19:13;;;;;;;9.98;5.32;;;;;;;;;;5045066;28;20243;-70
2024/01/04 11:21:53;;;;;;;10.15;6.75;;;;;;;;;;5043148;28;20053;-70
2024/01/04 11:24:29;;;;;;;11.30;6.45;;;;;;;;;;5040759;28;20058;-70
2024/01/04 11:26:59;;;;;;;11.32;5.32;;;;;;;;;;5043081;28;20053;-70
2024/01/04 11:29:26;;;;;;;9.40;6.63;;;;;;;;;;5044264;28;20081;-70
2024/01/04 11:31:57;;;;;;;11.45;6.40;;;;;;;;;;5043479;28;20053;-70
2024/01/04 11:34:24;;;;;;;19.92;10.10;;;;;;;;;;5042813;28;20459;-70
2024/01/04 11:36:54;;;;;;;16.58;11.05;;;;;;;;;;5042756;28;20409;-71
2024/01/04 11:39:26;;;;;;;15.38;10.15;;;;;;;;;;5043865;28;20088;-71
2024/01/04 11:41:53;;;;;;;13.43;7.30;;;;;;;;;;5043177;28;20057;-70
2024/01/04 11:44:19;;;;;;;9.35;5.80;;;;;;;;;;5043760;28;20057;-70
2024/01/04 11:46:46;;;;;;;10.50;6.20;;;;;;;;;;5044184;28;20053;-70
2024/01/04 11:49:14;;;;;;;10.02;6.35;;;;;;;;;;5043930;28;20599;-70
2024/01/04 11:51:46;;;;;;;10.77;6.80;;;;;;;;;;5042662;28;20058;-70
2024/01/04 11:54:14;;;;;;;8.57;5.45;;;;;;;;;;5043243;28;20057;-70
2024/01/04 11:56:41;;;;;;;10.35;6.07;;;;;;;;;;5043454;28;20554;-69
2024/01/04 11:59:11;;;;;;;11.48;5.70;;;;;;;;;;5044270;28;20057;-70
2024/01/04 12:01:39;;;;;;;8.10;4.88;;;;;;;;;;5043052;28;20876;-70
2024/01/04 12:04:11;;;;;;;10.48;5.10;;;;;;;;;;5043573;28;20084;-70
2024/01/04 12:06:41;;;;;;;13.15;4.90;;;;;;;;;;5042518;28;20460;-69
2024/01/04 12:09:09;;;;;;;10.70;5.38;;;;;;;;;;5042145;28;20053;-70
2024/01/04 12:11:36;;;;;;;7.93;5.03;;;;;;;;;;5042576;28;20060;-70
2024/01/04 12:14:03;;;;;;;5.90;4.30;;;;;;;;;;5043334;28;20054;-70
2024/01/04 12:16:30;;;;;;;7.25;3.60;;;;;;;;;;5042651;28;20054;-70
2024/01/04 12:18:56;;;;;;;5.70;3.67;;;;;;;;;;5042640;28;20395;-70
2024/01/04 12:21:26;;;;;;;9.80;4.28;;;;;;;;;;5043382;28;20049;-70
2024/01/04 12:23:53;;;;;;;9.02;3.50;;;;;;;;;;5042898;28;20587;-70
2024/01/04 12:26:23;;;;;;;6.30;3.42;;;;;;;;;;5042867;28;20053;-70
2024/01/04 12:28:51;;;;;;;6.22;3.90;;;;;;;;;;5042796;28;20061;-69
2024/01/04 12:31:26;;;;;;;4.00;3.08;;;;;;;;;;5042518;28;20057;-69
2024/01/04 12:33:53;;;;;;;7.63;2.83;;;;;;;;;;5037474;28;20935;-69
2024/01/04 12:36:23;;;;;;;3.75;2.90;;;;;;;;;;5042744;28;20532;-71
2024/01/04 12:38:53;;;;;;;6.97;3.00;;;;;;;;;;5043421;28;20571;-71
2024/01/04 12:41:28;;;;;;;4.75;2.25;;;;;;;;;;5042048;28;20060;-69
2024/01/04 12:43:55;;;;;;;4.35;2.28;;;;;;;;;;5041570;28;20083;-71
2024/01/04 12:46:22;;;;;;;6.68;2.10;;;;;;;;;;5043637;28;20053;-72
2024/01/04 12:48:49;;;;;;;8.35;2.33;;;;;;;;;;5042526;28;20050;-71
2024/01/04 12:51:15;;;;;;;3.15;1.67;;;;;;;;;;5039571;28;20064;-70
2024/01/04 12:53:45;;;;;;;7.03;2.25;;;;;;;;;;5037554;28;20084;-70
2024/01/04 12:56:12;;;;;;;4.72;2.30;;;;;;;;;;5041488;28;20061;-70
2024/01/04 12:58:41;;;;;;;4.90;2.25;;;;;;;;;;5042556;28;20140;-70
2024/01/04 13:01:08;;;;;;;5.15;1.98;;;;;;;;;;5043385;28;20117;-70
2024/01/04 13:03:35;;;;;;;3.97;1.50;;;;;;;;;;5041628;28;20061;-70
2024/01/04 13:06:02;;;;;;;4.53;1.50;;;;;;;;;;5042474;28;20057;-70
2024/01/04 13:08:29;;;;;;;1.40;1.20;;;;;;;;;;5042884;28;20069;-70
2024/01/04 13:10:56;;;;;;;3.47;2.28;;;;;;;;;;5042505;28;20085;-69
2024/01/04 13:13:23;;;;;;;3.17;1.50;;;;;;;;;;5041633;28;20062;-69
2024/01/04 13:15:49;;;;;;;2.90;1.40;;;;;;;;;;5042914;28;20056;-69
2024/01/04 13:18:16;;;;;;;4.85;1.70;;;;;;;;;;5042372;28;20491;-70
2024/01/04 13:20:43;;;;;;;5.45;1.83;;;;;;;;;;5042236;28;20629;-70
2024/01/04 13:23:10;;;;;;;6.72;1.60;;;;;;;;;;5042678;28;20617;-70
2024/01/04 13:25:36;;;;;;;3.28;1.30;;;;;;;;;;5042786;28;20050;-70
2024/01/04 13:28:03;;;;;;;1.52;1.33;;;;;;;;;;5043065;28;20061;-70
2024/01/04 13:30:30;;;;;;;2.15;1.60;;;;;;;;;;5042560;28;20510;-70
2024/01/04 13:32:57;;;;;;;3.67;1.67;;;;;;;;;;5043059;28;20140;-70
2024/01/04 13:35:24;;;;;;;3.78;1.63;;;;;;;;;;5042882;28;20531;-69
2024/01/04 13:37:51;;;;;;;5.13;1.85;;;;;;;;;;5042480;28;20061;-69
2024/01/04 13:40:17;;;;;;;5.10;1.63;;;;;;;;;;5043263;28;20053;-69
2024/01/04 13:42:45;;;;;;;3.90;1.48;;;;;;;;;;5042383;28;20123;-69
2024/01/04 13:45:12;;;;;;;3.08;1.73;;;;;;;;;;5042461;28;20133;-69
2024/01/04 13:47:39;;;;;;;4.78;2.15;;;;;;;;;;5042421;28;20435;-71
2024/01/04 13:50:06;;;;;;;2.70;1.42;;;;;;;;;;5042434;28;20141;-71
2024/01/04 13:52:33;;;;;;;4.25;1.73;;;;;;;;;;5042606;28;20589;-72
2024/01/04 13:55:00;;;;;;;2.55;1.23;;;;;;;;;;5039910;28;20042;-70
2024/01/04 13:57:26;;;;;;;5.32;1.80;;;;;;;;;;5042312;28;20491;-71
2024/01/04 13:59:55;;;;;;;2.72;1.35;;;;;;;;;;5042098;28;20677;-71
2024/01/04 14:02:22;;;;;;;6.18;1.75;;;;;;;;;;5042330;28;20478;-70
2024/01/04 14:04:48;;;;;;;3.65;1.60;;;;;;;;;;5041611;28;20054;-71
2024/01/04 14:07:15;;;;;;;2.72;1.10;;;;;;;;;;5041384;28;20061;-70
2024/01/04 14:09:42;;;;;;;4.53;0.88;;;;;;;;;;5042109;28;20053;-70
2024/01/04 14:12:10;;;;;;;5.15;1.60;;;;;;;;;;5042476;28;20055;-70
2024/01/04 14:14:37;;;;;;;2.00;1.15;;;;;;;;;;5042711;28;20068;-70
2024/01/04 14:17:03;;;;;;;2.80;1.02;;;;;;;;;;5041881;28;20096;-71
2024/01/04 14:19:30;;;;;;;1.58;0.77;;;;;;;;;;5041703;28;20105;-70
2024/01/04 14:21:56;;;;;;;1.77;0.70;;;;;;;;;;5041765;28;20167;-70
2024/01/04 14:24:23;;;;;;;3.67;0.80;;;;;;;;;;5041705;28;20057;-69
2024/01/04 14:26:50;;;;;;;4.07;1.15;;;;;;;;;;5045120;28;20128;-70
2024/01/04 14:29:17;;;;;;;1.42;0.98;;;;;;;;;;5044972;28;20055;-70
2024/01/04 14:31:46;;;;;;;0.93;0.70;;;;;;;;;;5044075;28;20622;-69
2024/01/04 14:34:13;;;;;;;1.08;0.80;;;;;;;;;;5044872;28;20673;-70
2024/01/04 14:36:41;;;;;;;3.88;0.93;;;;;;;;;;5044158;28;20077;-70
2024/01/04 14:39:09;;;;;;;2.97;1.00;;;;;;;;;;5045499;28;20064;-70
2024/01/04 14:41:40;;;;;;;2.83;0.90;;;;;;;;;;5044671;28;20064;-70